LWSK

Skopje Alexander the Great Airport

Skopje, Macedonia
TAF LWSK 161730Z 1618/1718 VRB02KT 9999 FEW050
Issued Valid From Valid To
Jul-16 @ 17:30 UTC
(3 hours ago)
Jul-16 @ 18:00 UTC
(2 hours ago)
Jul-17 @ 18:00 UTC
(in 22 hours)
Jul-16 @ 18:00 to Jul-17 @ 18:00
TAF LWSK 161730Z 1618/1718 VRB02KT 9999 FEW050
Wind Visibility Clouds
Variable at 2 knots 10,000+ meters
  • Few at 5,000' AGL
TAF LWSK 161730Z 1618/1718 VRB02KT 9999 FEW050
Issued Jul-16 @ 17:30 UTC
(3 hours ago)
Valid From Jul-16 @ 18:00 UTC
(2 hours ago)
Valid To Jul-17 @ 18:00 UTC
(in 22 hours)
Jul-16 @ 18:00 - Jul-17 @ 18:00
Wind Visibility
Variable at 2 knots 10,000+ meters
Clouds
  • Few at 5,000' AGL